Time;durP1;ratioP1;P1;durP2;ratioP2;P2;SDS_P1;SDS_P2;PMS_P1;PMS_P2;Temp;Humidity;BMP_temperature;BMP_pressure;BME280_temperature;BME280_humidity;BME280_pressure;Samples;Min_cycle;Max_cycle;Signal;HPM_P1;HPM_P2
2024/03/01 00:02:06;;;;;;;33.40;23.27;;;8.30;1.00;;;;;;5089671;28;20503;-73
2024/03/01 00:04:33;;;;;;;30.40;22.30;;;8.30;1.00;;;;;;5091467;28;20490;-72
2024/03/01 00:07:00;;;;;;;34.83;23.37;;;8.30;1.00;;;;;;5090963;28;20543;-75
2024/03/01 00:09:26;;;;;;;36.00;24.40;;;8.30;1.00;;;;;;5088573;28;21006;-72
2024/03/01 00:11:53;;;;;;;38.07;25.63;;;8.30;1.00;;;;;;5091928;28;20475;-73
2024/03/01 00:14:21;;;;;;;30.17;23.30;;;8.30;1.00;;;;;;5087089;28;21269;-73
2024/03/01 00:16:48;;;;;;;33.23;24.43;;;8.30;1.00;;;;;;5089978;28;20478;-72
2024/03/01 00:19:16;;;;;;;35.10;24.87;;;8.40;1.00;;;;;;5090620;28;20549;-72
2024/03/01 00:21:43;;;;;;;36.27;24.73;;;8.30;1.00;;;;;;5093369;28;20513;-73
2024/03/01 00:24:10;;;;;;;34.50;25.07;;;8.30;1.00;;;;;;5098655;27;20458;-73
2024/03/01 00:26:37;;;;;;;30.30;23.47;;;8.30;1.00;;;;;;5090397;28;20549;-73
2024/03/01 00:29:03;;;;;;;34.80;23.50;;;8.30;1.00;;;;;;5103046;27;20558;-74
2024/03/01 00:31:30;;;;;;;35.90;26.17;;;8.30;1.00;;;;;;5107869;27;20523;-73
2024/03/01 00:33:57;;;;;;;32.30;23.50;;;8.30;1.00;;;;;;5090200;28;20442;-73
2024/03/01 00:36:25;;;;;;;32.67;24.47;;;8.40;1.00;;;;;;5089495;28;20486;-74
2024/03/01 00:38:52;;;;;;;34.70;25.57;;;8.40;1.00;;;;;;5091296;28;21319;-72
2024/03/01 00:41:19;;;;;;;38.60;25.50;;;8.30;1.00;;;;;;5099806;27;20453;-72
2024/03/01 00:43:46;;;;;;;41.23;26.93;;;8.20;1.00;;;;;;5112093;27;20960;-73
2024/03/01 00:46:13;;;;;;;37.97;26.40;;;8.20;1.00;;;;;;5108583;27;20557;-73
2024/03/01 00:48:40;;;;;;;37.30;25.03;;;8.20;1.00;;;;;;5087091;28;20880;-72
2024/03/01 00:51:07;;;;;;;39.43;26.03;;;8.30;1.00;;;;;;5088661;28;20479;-74
2024/03/01 00:53:35;;;;;;;35.80;24.30;;;8.30;1.00;;;;;;5088517;28;21014;-73
2024/03/01 00:56:02;;;;;;;33.93;26.10;;;8.30;1.00;;;;;;5088794;28;20531;-71
2024/03/01 00:58:29;;;;;;;36.37;25.20;;;8.40;1.00;;;;;;5091528;28;20549;-73
2024/03/01 01:00:56;;;;;;;34.97;25.47;;;8.40;1.00;;;;;;5097629;27;20462;-71
2024/03/01 01:03:23;;;;;;;42.00;25.63;;;8.40;1.00;;;;;;5095293;27;20558;-71
2024/03/01 01:05:50;;;;;;;33.17;25.07;;;8.50;1.00;;;;;;5086975;28;20522;-72
2024/03/01 01:08:16;;;;;;;36.27;27.53;;;8.50;1.00;;;;;;5089550;27;20451;-73
2024/03/01 01:10:45;;;;;;;37.10;26.17;;;8.50;1.00;;;;;;5094042;27;20462;-74
2024/03/01 01:13:12;;;;;;;37.33;25.57;;;8.50;1.00;;;;;;5090713;27;20520;-73
2024/03/01 01:15:40;;;;;;;42.87;28.43;;;8.50;1.00;;;;;;5086596;28;20955;-72
2024/03/01 01:18:06;;;;;;;42.83;26.80;;;8.30;1.00;;;;;;5089188;28;20454;-72
2024/03/01 01:20:33;;;;;;;42.57;28.00;;;8.30;1.00;;;;;;5084913;28;20478;-76
2024/03/01 01:23:03;;;;;;;43.37;28.50;;;8.20;1.00;;;;;;5088740;28;20470;-72
2024/03/01 01:25:30;;;;;;;43.33;30.10;;;8.20;1.00;;;;;;5089004;28;21179;-74
2024/03/01 01:27:59;;;;;;;43.83;30.27;;;8.20;1.00;;;;;;5087627;28;20818;-73
2024/03/01 01:30:26;;;;;;;49.47;32.43;;;8.20;1.00;;;;;;5091450;27;20474;-74
2024/03/01 01:32:53;;;;;;;43.73;30.57;;;8.30;1.00;;;;;;5090136;27;20454;-72
2024/03/01 01:35:20;;;;;;;47.07;31.80;;;8.30;1.00;;;;;;5087613;28;20512;-73
2024/03/01 01:37:47;;;;;;;48.80;31.50;;;8.30;1.00;;;;;;5096222;27;20965;-73
2024/03/01 01:40:14;;;;;;;51.70;34.30;;;8.20;1.00;;;;;;5100789;27;20478;-72
2024/03/01 01:42:42;;;;;;;47.43;31.93;;;8.20;1.00;;;;;;5111376;27;20469;-72
2024/03/01 01:45:12;;;;;;;52.97;33.47;;;8.20;1.00;;;;;;5106292;27;20645;-72
2024/03/01 01:47:39;;;;;;;49.30;33.93;;;8.10;1.00;;;;;;5107935;27;20450;-70
2024/03/01 01:50:06;;;;;;;56.73;34.53;;;8.10;1.00;;;;;;5104777;27;21046;-72
2024/03/01 01:52:34;;;;;;;50.07;30.80;;;8.20;1.00;;;;;;5105300;27;20562;-72
2024/03/01 01:55:01;;;;;;;56.60;35.80;;;8.30;1.00;;;;;;5107933;27;20462;-72
2024/03/01 01:57:28;;;;;;;51.37;34.90;;;8.20;1.00;;;;;;5093934;28;20451;-73
2024/03/01 01:59:56;;;;;;;58.00;35.87;;;8.20;1.00;;;;;;5090734;28;20474;-73
2024/03/01 02:02:25;;;;;;;60.10;35.10;;;8.20;1.00;;;;;;5093488;28;20458;-73
2024/03/01 02:04:53;;;;;;;54.37;35.20;;;8.20;1.00;;;;;;5092313;28;20466;-72
2024/03/01 02:07:21;;;;;;;59.33;37.47;;;8.20;1.00;;;;;;5088740;28;20977;-73
2024/03/01 02:09:48;;;;;;;57.60;36.37;;;8.20;1.00;;;;;;5096142;28;21004;-73
2024/03/01 02:12:18;;;;;;;53.00;35.53;;;8.20;1.00;;;;;;5091455;28;21289;-72
2024/03/01 02:14:45;;;;;;;57.33;36.17;;;8.20;1.00;;;;;;5100928;27;20524;-73
2024/03/01 02:17:12;;;;;;;52.83;35.00;;;8.20;1.00;;;;;;5088994;28;20531;-71
2024/03/01 02:19:41;;;;;;;56.40;37.67;;;8.20;1.00;;;;;;5087299;28;20458;-72
2024/03/01 02:22:12;;;;;;;61.40;38.67;;;8.20;1.00;;;;;;5091823;28;20908;-71
2024/03/01 02:24:41;;;;;;;63.77;37.87;;;8.10;1.00;;;;;;5091654;28;20462;-72
2024/03/01 02:27:08;;;;;;;58.30;37.70;;;8.10;1.00;;;;;;5102177;27;20457;-71
2024/03/01 02:29:35;;;;;;;70.07;40.80;;;8.10;1.00;;;;;;5090184;28;20630;-73
2024/03/01 02:32:02;;;;;;;57.80;38.67;;;8.10;1.00;;;;;;5091811;27;20422;-72
2024/03/01 02:34:28;;;;;;;63.77;40.00;;;8.00;1.00;;;;;;5097995;27;20453;-73
2024/03/01 02:36:55;;;;;;;72.03;42.07;;;8.10;1.00;;;;;;5095409;27;20550;-74
2024/03/01 02:39:25;;;;;;;61.37;38.90;;;8.00;1.00;;;;;;5091936;28;20539;-72
2024/03/01 02:41:55;;;;;;;69.90;40.20;;;8.10;1.00;;;;;;5092870;28;20469;-71
2024/03/01 02:44:21;;;;;;;61.40;38.30;;;8.10;1.00;;;;;;5099812;27;20500;-72
2024/03/01 02:46:48;;;;;;;64.53;40.47;;;8.20;1.00;;;;;;5090492;28;20602;-72
2024/03/01 02:49:15;;;;;;;66.97;40.33;;;8.20;1.00;;;;;;5089979;27;20474;-73
2024/03/01 02:51:42;;;;;;;62.90;39.90;;;8.20;1.00;;;;;;5092170;28;20471;-73
2024/03/01 02:54:09;;;;;;;66.03;40.20;;;8.20;1.00;;;;;;5084426;28;20450;-72
2024/03/01 02:56:36;;;;;;;61.50;40.33;;;8.20;1.00;;;;;;5094020;28;20539;-73
2024/03/01 02:59:04;;;;;;;66.37;41.90;;;8.20;1.00;;;;;;5090893;28;20509;-73
2024/03/01 03:01:32;;;;;;;60.30;39.30;;;8.30;1.00;;;;;;5092068;28;21195;-71
2024/03/01 03:03:59;;;;;;;65.53;40.87;;;8.30;1.00;;;;;;5090861;27;20988;-72
2024/03/01 03:06:26;;;;;;;61.43;38.13;;;8.30;1.00;;;;;;5112881;27;20564;-71
2024/03/01 03:08:54;;;;;;;65.87;43.67;;;8.30;1.00;;;;;;5093358;27;20482;-72
2024/03/01 03:11:21;;;;;;;77.93;44.47;;;8.30;1.00;;;;;;5110335;27;21022;-74
2024/03/01 03:13:48;;;;;;;66.60;41.70;;;8.20;1.00;;;;;;5092946;28;20453;-71
2024/03/01 03:16:17;;;;;;;65.03;39.87;;;8.20;1.00;;;;;;5113441;27;20529;-72
2024/03/01 03:18:47;;;;;;;66.17;40.80;;;8.30;1.00;;;;;;5105895;27;20462;-72
2024/03/01 03:21:14;;;;;;;66.70;42.30;;;8.30;1.00;;;;;;5084003;28;20469;-71
2024/03/01 03:23:40;;;;;;;65.73;42.40;;;8.40;1.00;;;;;;5091750;28;20579;-71
2024/03/01 03:26:10;;;;;;;73.23;42.17;;;8.40;1.00;;;;;;5089833;28;20947;-71
2024/03/01 03:28:37;;;;;;;72.40;44.17;;;8.30;1.00;;;;;;5089913;28;20548;-73
2024/03/01 03:31:04;;;;;;;70.10;40.87;;;8.30;1.00;;;;;;5089510;28;20513;-72
2024/03/01 03:33:32;;;;;;;67.27;42.97;;;8.30;1.00;;;;;;5092238;28;20463;-74
2024/03/01 03:35:59;;;;;;;70.80;43.93;;;8.30;1.00;;;;;;5089078;28;20521;-76
2024/03/01 03:38:26;;;;;;;73.67;44.50;;;8.30;1.00;;;;;;5097903;27;20467;-75
2024/03/01 03:40:53;;;;;;;80.77;44.30;;;8.30;1.00;;;;;;5108682;27;20553;-75
2024/03/01 03:43:20;;;;;;;77.07;46.30;;;8.30;1.00;;;;;;5094165;27;20526;-75
2024/03/01 03:45:47;;;;;;;71.53;44.33;;;8.30;1.00;;;;;;5103028;27;20450;-75
2024/03/01 03:48:14;;;;;;;66.97;42.33;;;8.40;1.00;;;;;;5109011;27;20567;-75
2024/03/01 03:50:41;;;;;;;72.37;44.17;;;8.40;1.00;;;;;;5112542;27;20461;-76
2024/03/01 03:53:08;;;;;;;70.17;43.30;;;8.30;1.00;;;;;;5111658;27;20466;-76
2024/03/01 03:55:35;;;;;;;77.00;44.43;;;8.30;1.00;;;;;;5113120;27;20961;-76
2024/03/01 03:58:02;;;;;;;77.37;44.73;;;8.40;1.00;;;;;;5110831;27;20584;-75
2024/03/01 04:00:29;;;;;;;73.50;44.07;;;8.40;1.00;;;;;;5109711;27;20450;-74
2024/03/01 04:02:56;;;;;;;75.07;43.77;;;8.50;1.00;;;;;;5107646;27;20554;-74
2024/03/01 04:05:23;;;;;;;73.43;44.17;;;8.60;1.00;;;;;;5105627;27;20537;-76
2024/03/01 04:07:52;;;;;;;78.93;44.60;;;8.60;1.00;;;;;;5097064;27;20482;-75
2024/03/01 04:10:19;;;;;;;76.70;45.47;;;8.60;1.00;;;;;;5087814;28;21282;-75
2024/03/01 04:12:46;;;;;;;72.47;44.97;;;8.60;1.00;;;;;;5086854;28;21332;-76
2024/03/01 04:15:13;;;;;;;79.63;45.87;;;8.50;1.00;;;;;;5090459;28;20455;-75
2024/03/01 04:17:40;;;;;;;73.00;43.80;;;8.50;1.00;;;;;;5085782;28;20526;-75
2024/03/01 04:20:08;;;;;;;77.67;46.70;;;8.50;1.00;;;;;;5088478;28;20466;-75
2024/03/01 04:22:35;;;;;;;81.33;45.90;;;8.50;1.00;;;;;;5089372;28;20486;-76
2024/03/01 04:25:05;;;;;;;73.50;45.37;;;8.40;1.00;;;;;;5092501;28;20463;-74
2024/03/01 04:27:32;;;;;;;81.50;44.87;;;8.40;1.00;;;;;;5089978;28;20471;-76
2024/03/01 04:29:59;;;;;;;73.57;45.77;;;8.40;1.00;;;;;;5090634;28;20461;-74
2024/03/01 04:32:27;;;;;;;76.10;44.57;;;8.40;1.00;;;;;;5089973;28;20459;-75
2024/03/01 04:34:55;;;;;;;80.90;48.13;;;8.50;1.00;;;;;;5093153;28;20454;-75
2024/03/01 04:37:22;;;;;;;81.33;45.07;;;8.50;1.00;;;;;;5098729;27;20531;-75
2024/03/01 04:39:49;;;;;;;77.50;45.50;;;8.50;1.00;;;;;;5105527;27;20462;-75
2024/03/01 04:42:17;;;;;;;74.63;45.07;;;8.50;1.00;;;;;;5091833;28;20458;-73
2024/03/01 04:44:44;;;;;;;80.40;47.63;;;8.40;1.00;;;;;;5089821;28;20459;-72
2024/03/01 04:47:12;;;;;;;80.13;48.30;;;8.40;1.00;;;;;;5089610;28;20498;-72
2024/03/01 04:49:43;;;;;;;72.67;44.17;;;8.40;1.00;;;;;;5091792;28;20454;-71
2024/03/01 04:52:11;;;;;;;80.70;47.43;;;8.40;1.00;;;;;;5092985;28;21206;-72
2024/03/01 04:54:38;;;;;;;76.13;48.67;;;8.40;1.00;;;;;;5094932;27;20465;-72
2024/03/01 04:57:06;;;;;;;84.83;48.40;;;8.40;1.00;;;;;;5102989;27;20481;-72
2024/03/01 04:59:38;;;;;;;75.50;46.17;;;8.40;1.00;;;;;;5088151;28;20455;-72
2024/03/01 05:02:05;;;;;;;76.10;47.47;;;8.40;1.00;;;;;;5085440;28;20840;-75
2024/03/01 05:04:34;;;;;;;81.47;48.10;;;8.40;1.00;;;;;;5082925;28;20564;-72
2024/03/01 05:07:02;;;;;;;77.53;48.03;;;8.40;1.00;;;;;;5083379;28;20565;-73
2024/03/01 05:09:29;;;;;;;77.27;46.20;;;8.40;1.00;;;;;;5086863;28;21179;-72
2024/03/01 05:11:57;;;;;;;72.13;45.37;;;8.40;1.00;;;;;;5086293;28;20460;-71
2024/03/01 05:14:24;;;;;;;78.10;49.80;;;8.40;1.00;;;;;;5086732;27;20458;-75
2024/03/01 05:16:52;;;;;;;86.00;49.10;;;8.50;1.00;;;;;;5095893;27;20557;-71
2024/03/01 05:19:19;;;;;;;74.93;47.23;;;8.50;1.00;;;;;;5091768;28;20909;-74
2024/03/01 05:21:47;;;;;;;73.93;46.60;;;8.50;1.00;;;;;;5085176;28;20549;-73
2024/03/01 05:24:14;;;;;;;72.27;48.17;;;8.50;1.00;;;;;;5084072;28;20450;-74
2024/03/01 05:26:41;;;;;;;69.03;43.77;;;8.50;1.00;;;;;;5091319;28;20552;-74
2024/03/01 05:29:08;;;;;;;78.93;46.67;;;8.50;1.00;;;;;;5088529;28;21238;-75
2024/03/01 05:31:46;;;;;;;74.63;46.40;;;8.50;1.00;;;;;;5088098;28;20458;-73
2024/03/01 05:34:15;;;;;;;72.57;45.40;;;8.50;1.00;;;;;;5088740;28;20539;-73
2024/03/01 05:36:42;;;;;;;81.60;47.83;;;8.50;1.00;;;;;;5093315;27;21183;-74
2024/03/01 05:39:17;;;;;;;79.23;47.57;;;8.50;1.00;;;;;;5087061;28;20455;-72
2024/03/01 05:41:46;;;;;;;78.10;45.37;;;8.50;1.00;;;;;;5088720;28;22486;-72
2024/03/01 05:44:13;;;;;;;75.70;46.63;;;8.60;1.00;;;;;;5086027;28;20553;-75
2024/03/01 05:46:41;;;;;;;67.73;44.80;;;8.60;1.00;;;;;;5082050;28;21064;-74
2024/03/01 05:49:09;;;;;;;77.03;48.73;;;8.60;1.00;;;;;;5086509;28;20447;-73
2024/03/01 05:51:38;;;;;;;79.50;45.07;;;8.60;1.00;;;;;;5084332;28;21279;-73
2024/03/01 05:54:06;;;;;;;79.53;49.30;;;8.60;1.00;;;;;;5083908;28;20454;-74
2024/03/01 05:56:33;;;;;;;81.13;46.50;;;8.50;1.00;;;;;;5085688;28;21297;-72
2024/03/01 05:59:00;;;;;;;80.27;47.57;;;8.50;1.00;;;;;;5095151;27;20878;-73
2024/03/01 06:01:31;;;;;;;87.83;56.53;;;8.60;1.00;;;;;;5091774;28;20962;-73
2024/03/01 06:03:58;;;;;;;75.00;47.03;;;8.60;1.00;;;;;;5087842;28;20474;-70
2024/03/01 06:06:25;;;;;;;73.60;45.30;;;8.60;1.00;;;;;;5080984;28;20532;-73
2024/03/01 06:08:54;;;;;;;77.37;47.20;;;8.60;1.00;;;;;;5087052;28;20547;-72
2024/03/01 06:11:21;;;;;;;67.13;43.80;;;8.60;1.00;;;;;;5083290;28;20458;-75
2024/03/01 06:13:48;;;;;;;67.40;46.77;;;8.60;1.00;;;;;;5094541;28;20459;-72
2024/03/01 06:16:15;;;;;;;73.47;46.40;;;8.60;1.00;;;;;;5085456;28;20473;-72
2024/03/01 06:18:43;;;;;;;75.87;43.87;;;8.60;1.00;;;;;;5098346;27;20482;-71
2024/03/01 06:21:10;;;;;;;73.20;44.20;;;8.60;1.00;;;;;;5087395;28;20478;-71
2024/03/01 06:23:37;;;;;;;69.80;44.70;;;8.60;1.00;;;;;;5087503;28;20512;-74
2024/03/01 06:26:05;;;;;;;67.30;44.20;;;8.70;1.00;;;;;;5107003;27;20478;-72
2024/03/01 06:28:32;;;;;;;73.27;45.10;;;8.60;1.00;;;;;;5084360;28;20474;-72
2024/03/01 06:30:59;;;;;;;73.37;45.97;;;8.60;1.00;;;;;;5079122;28;20466;-74
2024/03/01 06:33:26;;;;;;;71.20;46.50;;;8.70;1.00;;;;;;5083206;28;20767;-72
2024/03/01 06:35:55;;;;;;;73.10;46.40;;;8.70;1.00;;;;;;5091848;28;20523;-73
2024/03/01 06:38:21;;;;;;;75.00;47.10;;;8.80;1.00;;;;;;5101372;27;22099;-72
2024/03/01 06:40:48;;;;;;;75.57;47.17;;;8.90;1.00;;;;;;5105036;27;20553;-72
2024/03/01 06:43:17;;;;;;;65.47;43.93;;;8.90;1.00;;;;;;5112205;27;20521;-72
2024/03/01 06:45:44;;;;;;;69.13;43.67;;;8.80;1.00;;;;;;5094750;27;20474;-74
2024/03/01 06:48:11;;;;;;;78.13;48.20;;;8.80;1.00;;;;;;5090046;28;20545;-73
2024/03/01 06:50:38;;;;;;;70.17;43.87;;;8.90;1.00;;;;;;5096499;28;20426;-73
2024/03/01 06:53:06;;;;;;;69.60;45.77;;;8.90;1.00;;;;;;5111403;27;21188;-72
2024/03/01 06:55:33;;;;;;;79.00;45.93;;;8.90;1.00;;;;;;5088995;28;20483;-71
2024/03/01 06:58:00;;;;;;;78.63;48.57;;;8.90;1.00;;;;;;5101736;27;20619;-74
2024/03/01 07:00:30;;;;;;;70.57;45.60;;;8.90;1.00;;;;;;5094064;28;20451;-73
2024/03/01 07:02:57;;;;;;;69.27;44.43;;;9.00;1.00;;;;;;5089348;28;20486;-75
2024/03/01 07:05:24;;;;;;;76.43;48.47;;;9.00;1.00;;;;;;5090883;28;20459;-76
2024/03/01 07:07:54;;;;;;;71.50;46.13;;;9.00;1.00;;;;;;5090734;28;20486;-72
2024/03/01 07:10:22;;;;;;;72.43;47.30;;;9.10;1.00;;;;;;5080623;28;20552;-73
2024/03/01 07:12:49;;;;;;;78.43;47.90;;;9.00;1.00;;;;;;5100592;27;20532;-78
2024/03/01 07:15:17;;;;;;;76.27;47.63;;;9.00;1.00;;;;;;5089998;28;20465;-77
2024/03/01 07:17:46;;;;;;;67.67;47.33;;;9.00;1.00;;;;;;5097121;27;20525;-73
2024/03/01 07:20:13;;;;;;;75.90;46.80;;;9.00;1.00;;;;;;5091838;28;20555;-71
2024/03/01 07:22:39;;;;;;;69.50;44.37;;;9.00;1.00;;;;;;5085007;28;20471;-73
2024/03/01 07:25:07;;;;;;;79.37;47.20;;;9.00;1.00;;;;;;5086127;28;20544;-77
2024/03/01 07:27:35;;;;;;;74.40;44.93;;;8.90;1.00;;;;;;5091745;28;20469;-72
2024/03/01 07:30:04;;;;;;;72.40;45.70;;;8.90;1.00;;;;;;5086597;28;20458;-74
2024/03/01 07:32:32;;;;;;;75.90;46.07;;;9.00;1.00;;;;;;5091667;28;20500;-73
2024/03/01 07:35:00;;;;;;;73.77;46.67;;;9.00;1.00;;;;;;5090839;28;20489;-73
2024/03/01 07:37:29;;;;;;;77.00;44.30;;;9.00;1.00;;;;;;5090259;28;20474;-72
2024/03/01 07:39:56;;;;;;;77.43;46.30;;;9.00;1.00;;;;;;5091755;28;20498;-73
2024/03/01 07:42:23;;;;;;;82.30;47.33;;;9.10;1.00;;;;;;5094687;27;20540;-71
2024/03/01 07:44:50;;;;;;;73.10;48.27;;;9.00;1.00;;;;;;5119124;27;20493;-71
2024/03/01 07:47:18;;;;;;;80.57;48.73;;;8.90;1.00;;;;;;5101139;27;21421;-72
2024/03/01 07:49:45;;;;;;;81.60;50.10;;;9.00;1.00;;;;;;5093445;27;20454;-72
2024/03/01 07:52:13;;;;;;;76.50;47.57;;;9.00;1.00;;;;;;5090092;28;20546;-72
2024/03/01 07:54:40;;;;;;;73.07;46.57;;;9.10;1.00;;;;;;5088592;28;20478;-70
2024/03/01 07:57:07;;;;;;;76.40;49.17;;;9.20;1.00;;;;;;5087141;28;20438;-74
2024/03/01 07:59:34;;;;;;;73.73;45.83;;;9.10;1.00;;;;;;5082675;28;20834;-73
2024/03/01 08:02:01;;;;;;;76.47;46.67;;;9.30;1.00;;;;;;5090571;28;20462;-72
2024/03/01 08:04:30;;;;;;;67.93;45.03;;;9.30;1.00;;;;;;5081363;28;20546;-73
2024/03/01 08:06:56;;;;;;;68.80;45.33;;;9.30;1.00;;;;;;5084708;28;20423;-76
2024/03/01 08:09:32;;;;;;;75.13;46.13;;;9.40;1.00;;;;;;5091943;28;20457;-73
2024/03/01 08:11:59;;;;;;;62.70;41.93;;;9.30;1.00;;;;;;5090658;28;20543;-72
2024/03/01 08:14:31;;;;;;;67.23;46.37;;;9.30;1.00;;;;;;5090048;28;20463;-72
2024/03/01 08:16:58;;;;;;;62.17;43.67;;;9.30;1.00;;;;;;5097662;27;20985;-72
2024/03/01 08:19:39;;;;;;;66.10;43.60;;;9.20;1.00;;;;;;5089736;28;20828;-75
2024/03/01 08:22:10;;;;;;;67.20;43.30;;;9.30;1.00;;;;;;5089892;28;20939;-71
2024/03/01 08:24:38;;;;;;;74.53;44.60;;;9.30;1.00;;;;;;5087970;28;20563;-73
2024/03/01 08:27:06;;;;;;;55.73;40.23;;;9.40;1.00;;;;;;5086915;28;20870;-74
2024/03/01 08:29:34;;;;;;;67.30;42.40;;;9.50;1.00;;;;;;5092009;28;20455;-72
2024/03/01 08:32:02;;;;;;;69.87;46.57;;;9.60;1.00;;;;;;5085795;28;20477;-73
2024/03/01 08:34:41;;;;;;;71.90;43.40;;;9.60;1.00;;;;;;5097061;27;20466;-73
2024/03/01 08:37:08;;;;;;;68.23;44.07;;;9.50;1.00;;;;;;5097864;27;20464;-74
2024/03/01 08:39:37;;;;;;;59.10;44.23;;;9.60;1.00;;;;;;5109341;27;20484;-74
2024/03/01 08:42:05;;;;;;;69.83;43.27;;;9.60;1.00;;;;;;5112044;27;20544;-73
2024/03/01 08:44:54;;;;;;;69.77;45.17;;;9.70;1.00;;;;;;5110968;27;20486;-72
2024/03/01 08:47:31;;;;;;;71.40;44.13;;;9.50;1.00;;;;;;5108668;27;20470;-72
2024/03/01 08:50:34;;;;;;;65.87;44.27;;;9.50;1.00;;;;;;5097992;27;20501;-73
2024/03/01 08:53:01;;;;;;;66.33;43.03;;;9.40;1.00;;;;;;5090552;28;20545;-74
2024/03/01 08:55:50;;;;;;;71.77;44.70;;;9.40;1.00;;;;;;5092812;28;20497;-75
2024/03/01 08:58:28;;;;;;;67.47;42.20;;;9.50;1.00;;;;;;5095939;28;20443;-81
2024/03/01 09:00:56;;;;;;;67.10;42.73;;;9.50;1.00;;;;;;5102126;27;20648;-76
2024/03/01 09:03:24;;;;;;;72.40;45.23;;;9.50;1.00;;;;;;5089799;27;20458;-74
2024/03/01 09:05:53;;;;;;;68.37;43.03;;;9.50;1.00;;;;;;5087588;27;20515;-73
2024/03/01 09:08:24;;;;;;;66.43;43.50;;;9.60;1.00;;;;;;5092715;27;20450;-74
2024/03/01 09:10:55;;;;;;;67.23;45.90;;;9.70;1.00;;;;;;5090446;28;20497;-73
2024/03/01 09:13:25;;;;;;;76.40;43.50;;;9.80;1.00;;;;;;5091145;28;20532;-78
2024/03/01 09:15:54;;;;;;;80.10;48.43;;;9.70;1.00;;;;;;5094856;28;20481;-71
2024/03/01 09:18:49;;;;;;;71.43;44.10;;;9.80;1.00;;;;;;5093956;28;20474;-77
2024/03/01 09:21:41;;;;;;;70.00;44.40;;;9.80;1.00;;;;;;5085919;28;20466;-74
2024/03/01 09:24:10;;;;;;;73.53;45.67;;;10.00;1.00;;;;;;5092436;28;20943;-73
2024/03/01 09:26:37;;;;;;;73.37;44.30;;;10.00;1.00;;;;;;5090042;28;20473;-75
2024/03/01 09:29:06;;;;;;;67.10;42.80;;;10.10;1.00;;;;;;5087865;28;20482;-76
2024/03/01 09:31:34;;;;;;;68.00;42.13;;;10.10;1.00;;;;;;5091801;28;20561;-74
2024/03/01 09:34:02;;;;;;;61.80;40.30;;;10.20;1.00;;;;;;5090617;28;20467;-75
2024/03/01 09:36:30;;;;;;;68.57;43.40;;;10.40;1.00;;;;;;5089667;28;20513;-76
2024/03/01 09:39:04;;;;;;;56.57;37.50;;;10.50;1.00;;;;;;5094393;27;20470;-74
2024/03/01 09:42:13;;;;;;;59.77;39.67;;;10.70;1.00;;;;;;5093329;27;20542;-74
2024/03/01 09:45:07;;;;;;;56.40;38.67;;;11.00;1.00;;;;;;5050476;27;20419;-75
2024/03/01 09:47:48;;;;;;;56.70;39.30;;;11.10;1.00;;;;;;5087464;28;20510;-73
2024/03/01 09:50:32;;;;;;;58.07;38.93;;;11.20;1.00;;;;;;5093565;28;20526;-74
2024/03/01 09:53:12;;;;;;;53.37;39.37;;;11.20;1.00;;;;;;5094225;27;20873;-74
2024/03/01 09:55:47;;;;;;;52.10;37.97;;;11.30;1.00;;;;;;5095594;27;20550;-73
2024/03/01 09:58:23;;;;;;;55.00;37.77;;;11.30;1.00;;;;;;5090437;28;20510;-72
2024/03/01 10:01:03;;;;;;;49.10;35.37;;;11.20;1.00;;;;;;5075975;28;20458;-73
2024/03/01 10:03:41;;;;;;;55.47;37.10;;;11.10;1.00;;;;;;5100712;27;20453;-74
2024/03/01 10:06:49;;;;;;;53.47;37.10;;;11.00;1.00;;;;;;5107348;27;20507;-75
2024/03/01 10:09:25;;;;;;;51.53;36.53;;;11.20;1.00;;;;;;5071389;28;20489;-74
2024/03/01 10:12:13;;;;;;;50.40;34.27;;;11.20;1.00;;;;;;5088847;28;20547;-72
2024/03/01 10:14:53;;;;;;;51.27;35.43;;;11.10;1.00;;;;;;5104626;27;21059;-71
2024/03/01 10:17:37;;;;;;;51.03;34.97;;;11.20;1.00;;;;;;5091235;28;20463;-73
2024/03/01 10:20:19;;;;;;;48.60;34.30;;;11.60;1.00;;;;;;5087837;28;20478;-72
2024/03/01 10:23:10;;;;;;;49.57;34.57;;;12.00;1.00;;;;;;5088231;28;20516;-72
2024/03/01 10:25:51;;;;;;;52.57;41.47;;;12.10;1.00;;;;;;5088296;28;20447;-74
2024/03/01 10:28:42;;;;;;;58.40;33.80;;;11.80;1.00;;;;;;5092307;27;20455;-76
2024/03/01 10:31:37;;;;;;;46.60;33.13;;;11.90;1.00;;;;;;5085832;27;20547;-75
2024/03/01 10:34:11;;;;;;;47.47;34.87;;;12.00;1.00;;;;;;5097114;27;20438;-80
2024/03/01 10:36:44;;;;;;;45.53;32.80;;;11.80;1.00;;;;;;5096673;28;21008;-78
2024/03/01 10:39:15;;;;;;;56.23;36.50;;;12.10;1.00;;;;;;5103642;27;20603;-78
2024/03/01 10:41:55;;;;;;;45.87;34.83;;;12.30;1.00;;;;;;5085332;28;21417;-75
2024/03/01 10:44:30;;;;;;;45.63;34.30;;;12.30;1.00;;;;;;5088094;28;20451;-76
2024/03/01 10:47:07;;;;;;;49.10;36.67;;;12.10;1.00;;;;;;5091475;28;20450;-77
2024/03/01 10:49:39;;;;;;;52.80;34.17;;;12.10;1.00;;;;;;5087381;28;20499;-74
2024/03/01 10:52:11;;;;;;;48.27;35.00;;;12.20;1.00;;;;;;5093737;28;20700;-77
2024/03/01 10:54:42;;;;;;;46.37;35.13;;;12.50;1.00;;;;;;5088571;28;20463;-76
2024/03/01 10:57:12;;;;;;;45.57;32.97;;;12.80;1.00;;;;;;5090690;27;20454;-76
2024/03/01 10:59:47;;;;;;;44.90;33.90;;;12.80;1.00;;;;;;5092482;28;21281;-79
2024/03/01 11:02:21;;;;;;;49.30;33.30;;;12.90;1.00;;;;;;5096775;27;20480;-76
2024/03/01 11:05:02;;;;;;;43.63;32.40;;;13.20;1.00;;;;;;5096393;27;20459;-80
2024/03/01 11:07:40;;;;;;;41.53;32.63;;;13.10;1.00;;;;;;5092554;28;20441;-79
2024/03/01 11:10:15;;;;;;;43.90;34.40;;;13.10;1.00;;;;;;5091333;28;20485;-76
2024/03/01 11:12:50;;;;;;;43.80;31.63;;;13.10;1.00;;;;;;5082829;28;20479;-77
2024/03/01 11:15:20;;;;;;;41.33;34.37;;;12.70;1.00;;;;;;5086843;28;20539;-77
2024/03/01 11:17:50;;;;;;;43.63;34.53;;;12.50;1.00;;;;;;5092740;28;20521;-79
2024/03/01 11:20:23;;;;;;;47.73;34.50;;;12.40;1.00;;;;;;5094176;28;20904;-77
2024/03/01 11:22:57;;;;;;;43.17;32.37;;;12.40;1.00;;;;;;5089078;28;20658;-78
2024/03/01 11:25:29;;;;;;;46.70;33.27;;;12.50;1.00;;;;;;5089484;28;20975;-78
2024/03/01 11:28:03;;;;;;;47.03;35.07;;;12.80;1.00;;;;;;5091457;28;20587;-79
2024/03/01 11:30:37;;;;;;;49.07;36.67;;;13.00;1.00;;;;;;5091929;28;20463;-74
2024/03/01 11:33:05;;;;;;;42.00;32.80;;;13.10;1.00;;;;;;5096424;27;20472;-76
2024/03/01 11:35:39;;;;;;;46.17;32.53;;;12.70;1.00;;;;;;5086409;28;20978;-74
2024/03/01 11:38:24;;;;;;;40.00;32.20;;;12.50;1.00;;;;;;5088300;28;20478;-76
2024/03/01 11:41:05;;;;;;;48.80;35.23;;;12.60;1.00;;;;;;5087421;28;20965;-75
2024/03/01 11:43:45;;;;;;;50.73;35.43;;;12.90;1.00;;;;;;5092279;28;21038;-74
2024/03/01 11:46:31;;;;;;;44.07;34.77;;;12.90;1.00;;;;;;5091912;28;20492;-75
2024/03/01 11:49:09;;;;;;;44.87;34.17;;;13.00;1.00;;;;;;5087923;28;20914;-74
2024/03/01 11:51:47;;;;;;;48.43;36.30;;;12.90;1.00;;;;;;5090631;28;20552;-72
2024/03/01 11:54:40;;;;;;;43.63;34.17;;;12.70;1.00;;;;;;5095895;27;20475;-72
2024/03/01 11:57:20;;;;;;;43.10;31.73;;;12.60;1.00;;;;;;5099554;27;21053;-72
2024/03/01 12:00:03;;;;;;;46.17;33.67;;;12.60;1.00;;;;;;5093313;27;20619;-73
2024/03/01 12:02:49;;;;;;;45.43;34.37;;;12.70;1.00;;;;;;5106292;27;20564;-74
2024/03/01 12:05:23;;;;;;;45.27;34.60;;;12.90;1.00;;;;;;5113067;27;21049;-73
2024/03/01 12:08:17;;;;;;;41.40;32.23;;;13.00;1.00;;;;;;5104362;27;20465;-73
2024/03/01 12:10:59;;;;;;;49.07;37.30;;;13.30;1.00;;;;;;5110081;27;20538;-74
2024/03/01 12:13:33;;;;;;;46.60;36.60;;;13.20;1.00;;;;;;5107498;27;20550;-76
2024/03/01 12:16:05;;;;;;;45.57;35.83;;;13.20;1.00;;;;;;5106522;27;20555;-76
2024/03/01 12:18:39;;;;;;;43.23;33.90;;;13.30;1.00;;;;;;5096500;27;20461;-73
2024/03/01 12:21:21;;;;;;;52.87;36.00;;;13.10;1.00;;;;;;5097672;28;20521;-72
2024/03/01 12:24:03;;;;;;;47.87;34.60;;;12.90;1.00;;;;;;5089369;28;20460;-73
2024/03/01 12:26:36;;;;;;;45.40;32.97;;;13.00;1.00;;;;;;5095518;27;21004;-74
2024/03/01 12:29:25;;;;;;;45.53;37.30;;;13.20;1.00;;;;;;5093612;28;20470;-72
2024/03/01 12:32:11;;;;;;;43.37;33.40;;;13.30;1.00;;;;;;5092469;28;20675;-72
2024/03/01 12:34:48;;;;;;;46.90;37.30;;;13.30;1.00;;;;;;5089782;28;20454;-75
2024/03/01 12:37:26;;;;;;;44.60;33.70;;;13.40;1.00;;;;;;5100940;27;20557;-72
2024/03/01 12:40:15;;;;;;;41.27;33.60;;;13.40;1.00;;;;;;5089884;28;20973;-72
2024/03/01 12:43:08;;;;;;;42.90;33.70;;;13.20;1.00;;;;;;5103847;27;20591;-73
2024/03/01 12:45:53;;;;;;;38.10;31.53;;;13.30;1.00;;;;;;5095041;27;20585;-73
2024/03/01 12:48:26;;;;;;;43.00;33.37;;;13.40;1.00;;;;;;5108791;27;20920;-73
2024/03/01 12:51:09;;;;;;;41.47;32.10;;;13.40;1.00;;;;;;5113163;27;20484;-72
2024/03/01 12:53:57;;;;;;;41.07;33.50;;;13.30;1.00;;;;;;5095285;27;20469;-72
2024/03/01 12:56:33;;;;;;;46.93;33.03;;;13.10;1.00;;;;;;5091172;28;20897;-71
2024/03/01 12:59:15;;;;;;;42.00;34.73;;;13.00;1.00;;;;;;5102402;27;20565;-77
2024/03/01 13:01:53;;;;;;;48.63;34.13;;;13.00;1.00;;;;;;5108092;27;21046;-74
2024/03/01 13:04:36;;;;;;;46.53;35.30;;;13.00;1.00;;;;;;5093711;28;20539;-72